Nearby METAR Reports


KANE - Minneapls/Blaine, Minnesota, USA
Distance from station: ESE 8mi, 13km
Updated: 08/02/2021 6:55am
Partly cloudy
Partly cloudy
 Wind from calm
Wind: Calm
Temperature: 57°F , 14°C
Dew Point: 54°F , 12°C
Humidity: 88%
Barometer: 30.19 inHg , 1022.4 hPa
Clouds: Partly cloudy
Visibility: 10 miles , 16 km
Cloud details: Partly cloudy 9500 ft
2021/08/02 11:55 KANE 021155Z AUTO 00000KT 10SM SCT095 14/12 A3019 RMK AO2
KMIC - Mnpls/Crystal, Minnesota, USA
Distance from station: S 8mi, 14km
Updated: 08/02/2021 6:53am
Mostly cloudy
Mostly cloudy
 Wind from calm
Wind: Calm
Temperature: 57°F , 14°C
Dew Point: 54°F , 12°C
Humidity: 88%
Barometer: 30.18 inHg , 1022 hPa
Clouds: Mostly cloudy
Visibility: 10 miles , 16 km
Cloud details: Mostly cloudy 9500 ft
2021/08/02 11:53 KMIC 021153Z 00000KT 10SM BKN095 14/12 A3018 RMK AO2 SLP218 T01440117 10156 20128 50002
 
KMSP - Minneapolis, Minnesota, USA
Distance from station: SSE 22mi, 35km
Updated: 08/02/2021 6:53am
Mostly cloudy
Mostly cloudy
 Wind from SSW
Wind: SSW 3 mph , 6 km/h
Temperature: 63°F , 17°C
Dew Point: 54°F , 12°C
Humidity: 73%
Barometer: 30.20 inHg , 1022.7 hPa
Clouds: Mostly cloudy
Visibility: 10 miles , 16 km
Cloud details: Mostly cloudy 9000 ft
2021/08/02 11:53 KMSP 021153Z 20003KT 10SM BKN090 17/12 A3020 RMK AO2 SLP223 ACC DSNT SE-SW T01720122 10194 20167 51003
KSTP - St. Paul, Minnesota, USA
Distance from station: SE 23mi, 38km
Updated: 08/02/2021 6:53am
Overcast
Overcast
 Wind from calm
Wind: Calm
Temperature: 63°F , 17°C
Dew Point: 57°F , 14°C
Humidity: 83%
Barometer: 30.20 inHg , 1022.7 hPa
Clouds: Overcast
Visibility: 10 miles , 16 km
Cloud details: Overcast 9000 ft
2021/08/02 11:53 KSTP 021153Z 00000KT 10SM OVC090 17/14 A3020 RMK AO2 SLP222 T01720139 10172 20150 51005
 
KCFE - Buffalo Muni, Minnesota, USA
Distance from station: W 24mi, 38km
Updated: 08/02/2021 7:35am
Clear
Clear
 
Temperature: 59°F , 15°C
Dew Point: 54°F , 12°C
Humidity: 82%
Barometer: 30.21 inHg , 1023 hPa
Clouds: Clear
Visibility: 10 miles , 16 km
2021/08/02 12:35 KCFE 021235Z 10SM CLR 15/12 A3021 RMK AO2 T01480120
KFCM - Mnpls/Flying Cld, Minnesota, USA
Distance from station: S 25mi, 40km
Updated: 08/02/2021 6:53am
Mostly cloudy
Mostly cloudy
 Wind from SW
Wind: SW 3 mph , 6 km/h
Temperature: 59°F , 15°C
Dew Point: 54°F , 12°C
Humidity: 82%
Barometer: 30.19 inHg , 1022.4 hPa
Clouds: Mostly cloudy
Visibility: 10 miles , 16 km
Cloud details: Mostly cloudy 9000 ft
2021/08/02 11:53 KFCM 021153Z 22003KT 10SM BKN090 15/12 A3019 RMK AO2 SLP220 T01500117 10172 20150 50004
 
KCBG - Cambridge Muni, Minnesota, USA
Distance from station: N 27mi, 43km
Updated: 08/02/2021 6:55am
Partly cloudy
Partly cloudy
 Wind from calm
Wind: Calm
Temperature: 57°F , 14°C
Dew Point: 48°F , 9°C
Humidity: 72%
Barometer: 30.19 inHg , 1022.4 hPa
Clouds: Partly cloudy
Visibility: 10 miles , 16 km
Cloud details: Partly cloudy 10000 ft
2021/08/02 11:55 KCBG 021155Z AUTO 00000KT 10SM SCT100 14/09 A3019 RMK AO2
KPNM - Princeton Muni, Minnesota, USA
Distance from station: NNW 27mi, 44km
Updated: 08/02/2021 7:35am
Partly cloudy
Partly cloudy
 Wind from calm
Wind: Calm
Temperature: 55°F , 13°C
Dew Point: 54°F , 12°C
Humidity: 94%
Barometer: 30.19 inHg , 1022.4 hPa
Clouds: Partly cloudy
Visibility: 10 miles , 16 km
Cloud details: Partly cloudy 9500 ft
2021/08/02 12:35 KPNM 021235Z AUTO 00000KT 10SM SCT095 13/12 A3019 RMK AO2
 
K21D - Lake Elmo, Minnesota, USA
Distance from station: ESE 28mi, 46km
Updated: 08/02/2021 7:35am
Mostly cloudy
Mostly cloudy
 Wind from calm
Wind: Calm
Temperature: 59°F , 15°C
Dew Point: 55°F , 13°C
Humidity: 88%
Barometer: 30.21 inHg , 1023 hPa
Clouds: Mostly cloudy
Visibility: 7 miles , 11 km
Cloud details: Mostly cloudy 9000 ft
2021/08/02 12:35 K21D 021235Z AUTO 00000KT 7SM BKN090 15/13 A3021 RMK AO2
KSGS - South St Paul, Minnesota, USA
Distance from station: SE 28mi, 46km
Updated: 08/02/2021 7:35am
Mostly cloudy
Mostly cloudy
 Wind from calm
Wind: Calm
Temperature: 63°F , 17°C
Dew Point: 54°F , 12°C
Humidity: 73%
Barometer: 30.20 inHg , 1022.7 hPa
Clouds: Mostly cloudy
Visibility: 10 miles , 16 km
Cloud details: Partly cloudy 7000 ft
Mostly cloudy 9000 ft
2021/08/02 12:35 KSGS 021235Z AUTO 00000KT 10SM SCT070 BKN090 17/12 A3020 RMK AO2 T01720121
 
KMGG - Maple Lake, Minnesota, USA
Distance from station: W 30mi, 48km
Updated: 08/02/2021 7:35am
Overcast
Overcast
 Wind from calm
Wind: Calm
Temperature: 61°F , 16°C
Dew Point: 57°F , 14°C
Humidity: 88%
Barometer: 30.21 inHg , 1023 hPa
Clouds: Overcast
Visibility: 10 miles , 16 km
Cloud details: Partly cloudy 1700 ft
Overcast 9500 ft
2021/08/02 12:35 KMGG 021235Z AUTO 00000KT 10SM SCT017 OVC095 16/14 A3021 RMK AO2 T01570142
KOEO - Osceola, Wisconsin, USA
Distance from station: ENE 34mi, 55km
Updated: 08/02/2021 7:35am
Mostly cloudy
Mostly cloudy
 Wind from calm
Wind: Calm
Temperature: 59°F , 15°C
Dew Point: 59°F , 15°C
Humidity: 100%
Barometer: 30.23 inHg , 1023.7 hPa
Clouds: Mostly cloudy
Visibility: 10 miles , 16 km
Cloud details: Partly cloudy 8000 ft
Mostly cloudy 9000 ft
2021/08/02 12:35 KOEO 021235Z AUTO 00000KT 10SM SCT080 BKN090 15/15 A3023 RMK AO2 T01460146 PWINO
 
KLVN - Mnpls/Airlake, Minnesota, USA
Distance from station: S 39mi, 63km
Updated: 08/02/2021 7:15am
Clear
Clear
 Wind from calm
Wind: Calm
Temperature: 57°F , 14°C
Dew Point: 54°F , 12°C
Humidity: 88%
Barometer: 30.21 inHg , 1023 hPa
Clouds: Clear
Visibility: 10 miles , 16 km
2021/08/02 12:15 KLVN 021215Z AUTO 00000KT 10SM CLR 14/12 A3021 RMK AO2
KRNH - New Richmond Mun, Wisconsin, USA
Distance from station: E 41mi, 66km
Updated: 08/02/2021 7:15am
Overcast
Overcast
 Wind from calm
Wind: Calm
Temperature: 59°F , 15°C
Dew Point: 55°F , 13°C
Humidity: 88%
Barometer: 30.20 inHg , 1022.7 hPa
Clouds: Overcast
Visibility: 10 miles , 16 km
Cloud details: Overcast 9000 ft
2021/08/02 12:15 KRNH 021215Z AUTO 00000KT 10SM OVC090 15/13 A3020 RMK AO2 T01490134
 
KROS - Rush City, Minnesota, USA
Distance from station: NNE 41mi, 66km
Updated: 08/02/2021 7:22am
Mostly cloudy
Mostly cloudy
 Wind from calm
Wind: Calm
Temperature: 55°F , 13°C
Dew Point: 54°F , 12°C
Humidity: 94%
Barometer: 30.19 inHg , 1022.4 hPa
Clouds: Mostly cloudy
Visibility: 10 miles , 16 km
Cloud details: Mostly cloudy 11000 ft
2021/08/02 12:22 KROS 021222Z AUTO 00000KT 10SM BKN110 13/12 A3019 RMK AO2
KSTC - St. Cloud, Minnesota, USA
Distance from station: NW 41mi, 67km
Updated: 08/02/2021 6:53am
Mostly cloudy
Mostly cloudy
 Wind from calm
Wind: Calm
Temperature: 52°F , 11°C
Dew Point: 50°F , 10°C
Humidity: 94%
Barometer: 30.19 inHg , 1022.4 hPa
Clouds: Mostly cloudy
Visibility: 10 miles , 16 km
Cloud details: Mostly cloudy 9500 ft
2021/08/02 11:53 KSTC 021153Z 00000KT 10SM BKN095 11/10 A3019 RMK AO2 SLP228 T01110100 10128 20100 52002
 
KGYL - Glencoe, Minnesota, USA
Distance from station: SW 46mi, 74km
Updated: 08/02/2021 7:35am
Mostly cloudy
Mostly cloudy
 Wind from WSW
Wind: WSW 5 mph , 7 km/h
Temperature: 57°F , 14°C
Dew Point: 54°F , 12°C
Humidity: 88%
Barometer: 30.20 inHg , 1022.7 hPa
Clouds: Mostly cloudy
Visibility: 10 miles , 16 km
Cloud details: Mostly cloudy 8500 ft
2021/08/02 12:35 KGYL 021235Z AUTO 24004KT 10SM BKN085 14/12 A3020 RMK AO2 T01360116
KJMR - Mora, Minnesota, USA
Distance from station: N 48mi, 78km
Updated: 08/02/2021 7:35am
Clear
Clear
 Wind from calm
Wind: Calm
Temperature: 54°F , 12°C
Dew Point: 52°F , 11°C
Humidity: 94%
Barometer: 30.20 inHg , 1022.7 hPa
Clouds: Clear
Visibility: 10 miles , 16 km
2021/08/02 12:35 KJMR 021235Z AUTO 00000KT 10SM CLR 12/11 A3020 RMK AO2